Аэропорт: Николаев. Николаев

ICAO: UKON

METAR:
Информация по данной станции не доступна
METAR:
2019-09-21 11:06:00
TAF UKON 211106Z 2112/2121 33008G15MPS 9999 SCT010 SCT020CB BECMG 2113/2115 33005MPS